Time;durP1;ratioP1;P1;durP2;ratioP2;P2;SDS_P1;SDS_P2;PMS_P1;PMS_P2;Temp;Humidity;BMP_temperature;BMP_pressure;BME280_temperature;BME280_humidity;BME280_pressure;Samples;Min_cycle;Max_cycle;Signal;HPM_P1;HPM_P2
2022/08/07 00:00:04;;;;;;;11.70;9.10;;;;;;;10.63;100.00;163343.50;5020731;28;20508;-59
2022/08/07 00:02:29;;;;;;;9.38;8.25;;;;;;;10.54;100.00;163320.56;5021940;28;20025;-59
2022/08/07 00:04:54;;;;;;;10.68;9.60;;;;;;;10.48;100.00;163305.69;5019474;28;20540;-58
2022/08/07 00:07:20;;;;;;;9.73;8.15;;;;;;;10.41;100.00;163286.81;5021196;28;20448;-59
2022/08/07 00:09:45;;;;;;;10.57;9.43;;;;;;;10.31;100.00;163259.78;5019596;28;20037;-59
2022/08/07 00:12:10;;;;;;;9.65;8.65;;;;;;;10.24;100.00;163240.91;5022348;28;20033;-59
2022/08/07 00:14:36;;;;;;;13.15;10.15;;;;;;;10.18;100.00;163224.66;5017803;28;20041;-58
2022/08/07 00:17:01;;;;;;;11.90;10.70;;;;;;;10.15;100.00;163219.28;5021438;28;20021;-58
2022/08/07 00:19:27;;;;;;;11.75;9.10;;;;;;;10.12;100.00;163211.19;5029200;28;20100;-58
2022/08/07 00:21:52;;;;;;;13.30;11.38;;;;;;;10.05;100.00;163192.28;5024038;28;20042;-58
2022/08/07 00:24:18;;;;;;;10.80;9.68;;;;;;;10.01;100.00;163181.53;5010426;28;20029;-58
2022/08/07 00:26:43;;;;;;;15.63;10.85;;;;;;;9.98;100.00;163173.41;5015027;28;20025;-58
2022/08/07 00:29:08;;;;;;;12.18;10.57;;;;;;;9.94;100.00;163162.63;5029541;28;20025;-58
2022/08/07 00:31:34;;;;;;;11.23;10.13;;;;;;;9.91;100.00;163154.50;5031032;28;20563;-59
2022/08/07 00:33:59;;;;;;;11.82;10.07;;;;;;;9.88;100.00;163146.41;5023352;28;20556;-59
2022/08/07 00:36:25;;;;;;;10.07;9.07;;;;;;;9.84;100.00;163138.34;5009915;28;20046;-59
2022/08/07 00:38:50;;;;;;;11.98;10.75;;;;;;;9.82;100.00;163132.94;5011871;28;20425;-60
2022/08/07 00:41:23;;;;;;;11.75;9.15;;;;;;;9.79;100.00;163124.81;5010182;28;20042;-59
2022/08/07 00:43:48;;;;;;;11.35;9.43;;;;;;;9.75;100.00;163114.03;5011606;28;20026;-59
2022/08/07 00:46:14;;;;;;;12.98;11.40;;;;;;;9.70;100.00;163100.56;5010441;28;20046;-60
2022/08/07 00:48:39;;;;;;;14.15;11.68;;;;;;;9.68;100.00;163095.16;5011874;28;20052;-60
2022/08/07 00:51:05;;;;;;;15.82;12.05;;;;;;;9.67;100.00;163092.44;5022856;28;20084;-60
2022/08/07 00:53:30;;;;;;;12.75;11.40;;;;;;;9.66;100.00;163089.75;5031129;28;20468;-60
2022/08/07 00:55:55;;;;;;;15.35;13.73;;;;;;;9.62;100.00;163080.31;5029220;28;20045;-60
2022/08/07 00:58:21;;;;;;;12.27;10.75;;;;;;;9.58;100.00;163068.16;5030701;28;20029;-60
2022/08/07 01:00:47;;;;;;;13.13;11.75;;;;;;;9.52;100.00;163053.34;5029894;28;20412;-60
2022/08/07 01:03:12;;;;;;;14.65;13.10;;;;;;;9.56;100.00;163062.78;5030757;28;20022;-59
2022/08/07 01:05:39;;;;;;;14.88;13.38;;;;;;;9.52;100.00;163054.69;5029388;28;20042;-59
2022/08/07 01:08:05;;;;;;;15.73;13.05;;;;;;;9.49;100.00;163046.56;5031069;28;20036;-59
2022/08/07 01:10:31;;;;;;;16.17;12.73;;;;;;;9.45;100.00;163035.81;5020175;28;20041;-60
2022/08/07 01:12:56;;;;;;;16.67;13.50;;;;;;;9.44;100.00;163033.09;5011223;28;20485;-60
2022/08/07 01:15:24;;;;;;;16.17;14.50;;;;;;;9.47;100.00;163041.22;5009714;28;20038;-60
2022/08/07 01:17:50;;;;;;;18.13;13.60;;;;;;;9.50;100.00;163047.94;5012981;28;20051;-60
2022/08/07 01:20:16;;;;;;;19.67;14.63;;;;;;;9.53;100.00;163057.38;5029089;28;20041;-60
2022/08/07 01:22:41;;;;;;;16.20;14.70;;;;;;;9.51;100.00;163051.97;5017264;28;20116;-61
2022/08/07 01:25:09;;;;;;;15.52;13.15;;;;;;;9.56;100.00;163062.78;5029443;28;20064;-59
2022/08/07 01:27:34;;;;;;;15.02;13.43;;;;;;;9.51;100.00;163051.97;5030360;28;20164;-59
2022/08/07 01:30:01;;;;;;;17.52;14.00;;;;;;;9.48;100.00;163042.53;5029598;28;20034;-59
2022/08/07 01:32:26;;;;;;;15.50;13.60;;;;;;;9.41;100.00;163025.03;5030364;28;20680;-59
2022/08/07 01:34:52;;;;;;;19.30;13.10;;;;;;;9.47;100.00;163041.22;5030590;28;20030;-59
2022/08/07 01:37:18;;;;;;;12.82;11.07;;;;;;;9.45;100.00;163035.81;5017673;28;20049;-59
2022/08/07 01:39:44;;;;;;;14.05;12.20;;;;;;;9.38;100.00;163015.59;5015029;28;20048;-60
2022/08/07 01:42:10;;;;;;;16.10;13.05;;;;;;;9.34;100.00;163007.47;5013360;28;20038;-59
2022/08/07 01:44:36;;;;;;;19.90;16.95;;;;;;;9.30;100.00;162995.34;5014838;28;20152;-60
2022/08/07 01:47:01;;;;;;;17.92;13.82;;;;;;;9.28;100.00;162989.91;5013499;28;20042;-59
2022/08/07 01:49:27;;;;;;;17.75;14.77;;;;;;;9.28;100.00;162991.31;5030891;28;20069;-59
2022/08/07 01:51:54;;;;;;;17.60;15.73;;;;;;;9.28;100.00;162991.31;5023630;28;20072;-59
2022/08/07 01:54:21;;;;;;;18.77;16.50;;;;;;;9.29;100.00;162992.63;5014891;28;20396;-59
2022/08/07 01:57:00;;;;;;;14.18;11.18;;;;;;;9.27;100.00;162987.28;5014134;28;20417;-59
2022/08/07 01:59:42;;;;;;;13.90;12.50;;;;;;;9.26;100.00;162984.56;5014455;28;20048;-59
2022/08/07 02:02:16;;;;;;;15.70;13.80;;;;;;;9.21;100.00;162973.75;5023640;28;20461;-59
2022/08/07 02:04:46;;;;;;;22.50;15.57;;;;;;;9.19;100.00;162967.00;5029040;28;20118;-59
2022/08/07 02:07:15;;;;;;;17.50;15.70;;;;;;;9.16;100.00;162960.28;5013141;28;20042;-59
2022/08/07 02:09:44;;;;;;;15.80;14.15;;;;;;;9.13;100.00;162952.16;5014514;28;20030;-59
2022/08/07 02:12:17;;;;;;;15.05;13.50;;;;;;;9.15;100.00;162957.56;5012586;28;20050;-60
2022/08/07 02:14:45;;;;;;;14.52;12.63;;;;;;;9.08;100.00;162938.69;5014572;28;20654;-59
2022/08/07 02:17:13;;;;;;;13.32;11.25;;;;;;;9.12;100.00;162948.13;5013052;28;20042;-60
2022/08/07 02:19:41;;;;;;;17.13;15.35;;;;;;;9.08;100.00;162938.69;5020377;28;20029;-59
2022/08/07 02:22:10;;;;;;;13.00;10.90;;;;;;;9.03;100.00;162925.22;5012971;28;20539;-59
2022/08/07 02:24:36;;;;;;;12.23;11.02;;;;;;;8.97;100.00;162909.06;5014155;28;20026;-59
2022/08/07 02:27:02;;;;;;;14.13;11.85;;;;;;;8.95;100.00;162903.66;5021515;28;20057;-59
2022/08/07 02:29:29;;;;;;;11.32;9.45;;;;;;;8.85;100.00;162878.03;5033864;28;20032;-59
2022/08/07 02:31:55;;;;;;;11.27;9.27;;;;;;;8.87;100.00;162884.78;5032392;28;20076;-59
2022/08/07 02:34:20;;;;;;;9.70;8.80;;;;;;;8.81;100.00;162868.59;5029795;28;20033;-59
2022/08/07 02:36:48;;;;;;;12.68;11.38;;;;;;;8.78;100.00;162859.16;5012822;28;20061;-59
2022/08/07 02:39:15;;;;;;;14.70;12.25;;;;;;;8.76;100.00;162853.75;5014243;28;20473;-59
2022/08/07 02:41:41;;;;;;;16.10;12.23;;;;;;;8.75;100.00;162852.38;5012135;28;20072;-59
2022/08/07 02:44:08;;;;;;;17.83;13.45;;;;;;;8.71;100.00;162842.94;5013848;28;20033;-59
2022/08/07 02:46:35;;;;;;;14.23;12.52;;;;;;;8.68;100.00;162833.50;5012329;28;20049;-59
2022/08/07 02:49:02;;;;;;;13.60;11.73;;;;;;;8.66;100.00;162828.16;5031086;28;20571;-58
2022/08/07 02:51:32;;;;;;;13.13;11.73;;;;;;;8.63;100.00;162820.03;5016330;28;20056;-58
2022/08/07 02:54:01;;;;;;;20.45;16.65;;;;;;;8.59;100.00;162809.28;5024357;28;20029;-57
2022/08/07 02:56:30;;;;;;;10.13;9.05;;;;;;;8.61;100.00;162814.63;5031417;28;20037;-58
2022/08/07 02:58:59;;;;;;;15.20;8.18;;;;;;;8.55;100.00;162801.16;5033757;28;20044;-58
2022/08/07 03:01:25;;;;;;;;;;;;;;;8.52;100.00;162791.72;5032356;28;20043;-57
2022/08/07 03:03:51;;;;;;;14.40;11.98;;;;;;;8.51;100.00;162789.03;5021643;28;19935;-60
2022/08/07 03:06:18;;;;;;;8.23;7.30;;;;;;;8.45;100.00;162774.13;5012028;28;20042;-60
2022/08/07 03:08:45;;;;;;;14.23;11.38;;;;;;;8.41;100.00;162763.38;5013420;28;20026;-59
2022/08/07 03:11:11;;;;;;;19.08;14.73;;;;;;;8.37;100.00;162752.63;5011613;28;20042;-57
2022/08/07 03:13:36;;;;;;;18.02;13.70;;;;;;;8.40;100.00;162762.06;5013015;28;20021;-60
2022/08/07 03:16:02;;;;;;;9.18;7.18;;;;;;;8.42;100.00;162766.09;5021535;28;20045;-59
2022/08/07 03:18:28;;;;;;;17.98;11.05;;;;;;;8.38;100.00;162756.66;5032931;28;20059;-59
2022/08/07 03:20:54;;;;;;;18.95;9.35;;;;;;;8.43;100.00;162768.78;5029926;28;20048;-58
2022/08/07 03:23:20;;;;;;;6.85;6.10;;;;;;;8.42;100.00;162766.09;5033005;28;20017;-59
2022/08/07 03:25:46;;;;;;;12.40;10.63;;;;;;;8.39;100.00;162757.97;5030995;28;20092;-60
2022/08/07 03:28:15;;;;;;;10.32;8.48;;;;;;;8.36;100.00;162751.25;5032883;28;20049;-60
2022/08/07 03:30:41;;;;;;;11.60;10.30;;;;;;;8.35;100.00;162747.22;5030714;28;20386;-59
2022/08/07 03:33:09;;;;;;;12.05;10.70;;;;;;;8.31;100.00;162736.41;5032274;28;20104;-59
2022/08/07 03:35:35;;;;;;;10.75;9.15;;;;;;;8.28;100.00;162729.66;5027715;28;20037;-59
2022/08/07 03:38:04;;;;;;;13.43;10.50;;;;;;;8.24;100.00;162720.25;5012752;28;20393;-59
2022/08/07 03:40:30;;;;;;;9.10;6.53;;;;;;;8.22;100.00;162714.88;5010884;28;20034;-60
2022/08/07 03:42:56;;;;;;;16.30;5.18;;;;;;;8.19;100.00;162706.78;5013510;28;20485;-59
2022/08/07 03:45:24;;;;;;;8.77;6.32;;;;;;;8.15;100.00;162696.00;5011607;28;20041;-59
2022/08/07 03:47:50;;;;;;;9.48;8.50;;;;;;;8.13;100.00;162690.63;5012403;28;20030;-60
2022/08/07 03:50:18;;;;;;;78.57;8.55;;;;;;;8.13;100.00;162689.22;5015877;28;20072;-59
2022/08/07 03:52:46;;;;;;;12.63;11.00;;;;;;;8.11;100.00;162685.19;5032430;28;20031;-60
2022/08/07 03:55:11;;;;;;;11.30;9.52;;;;;;;8.10;100.00;162682.50;5016465;28;20501;-60
2022/08/07 03:57:38;;;;;;;13.75;10.82;;;;;;;8.08;100.00;162677.09;5012162;28;20148;-60
2022/08/07 04:00:04;;;;;;;16.67;13.30;;;;;;;8.09;100.00;162681.19;5029558;28;20065;-60
2022/08/07 04:02:29;;;;;;;22.10;15.57;;;;;;;8.10;100.00;162682.50;5031304;28;20025;-62
2022/08/07 04:04:55;;;;;;;10.10;9.10;;;;;;;8.14;100.00;162693.31;5030672;28;20116;-61
2022/08/07 04:07:20;;;;;;;13.57;9.18;;;;;;;8.11;100.00;162685.19;5032058;28;20021;-61
2022/08/07 04:09:47;;;;;;;11.77;9.57;;;;;;;8.04;100.00;162666.34;5030585;28;20037;-60
2022/08/07 04:12:13;;;;;;;17.10;12.85;;;;;;;8.02;100.00;162660.94;5029936;28;20132;-60
2022/08/07 04:14:39;;;;;;;19.95;14.00;;;;;;;8.04;100.00;162666.34;5017582;28;20033;-60
2022/08/07 04:17:05;;;;;;;13.38;11.48;;;;;;;8.03;100.00;162665.00;5013120;28;20038;-61
2022/08/07 04:19:31;;;;;;;9.55;8.55;;;;;;;7.99;100.00;162652.88;5011156;28;20042;-62
2022/08/07 04:21:56;;;;;;;15.43;13.07;;;;;;;7.91;100.00;162634.00;5030709;28;20498;-61
2022/08/07 04:24:22;;;;;;;15.77;11.95;;;;;;;7.92;100.00;162636.72;5027217;28;20135;-60
2022/08/07 04:26:48;;;;;;;13.70;11.07;;;;;;;7.94;100.00;162642.06;5016087;28;20021;-60
2022/08/07 04:29:13;;;;;;;13.02;11.60;;;;;;;7.96;100.00;162644.78;5018090;28;20026;-60
2022/08/07 04:31:39;;;;;;;12.90;10.95;;;;;;;7.95;100.00;162643.44;5011302;28;20481;-60
2022/08/07 04:34:06;;;;;;;12.93;11.55;;;;;;;7.94;100.00;162640.75;5011054;28;20382;-60
2022/08/07 04:36:31;;;;;;;15.18;12.90;;;;;;;7.93;100.00;162639.38;5011653;28;20045;-60
2022/08/07 04:38:57;;;;;;;13.98;12.18;;;;;;;7.95;100.00;162643.44;5013018;28;20040;-60
2022/08/07 04:41:22;;;;;;;15.57;10.57;;;;;;;7.94;100.00;162642.06;5012981;28;20045;-60
2022/08/07 04:43:49;;;;;;;16.00;13.73;;;;;;;7.96;100.00;162644.78;5021089;28;20018;-60
2022/08/07 04:46:29;;;;;;;19.40;14.65;;;;;;;8.00;100.00;162655.59;5024456;28;20071;-60
2022/08/07 04:49:25;;;;;;;15.85;11.82;;;;;;;8.06;100.00;162673.06;5022849;28;20025;-59
2022/08/07 04:52:16;;;;;;;14.00;12.50;;;;;;;8.13;100.00;162690.63;5009676;28;20046;-59
2022/08/07 04:54:55;;;;;;;18.63;14.27;;;;;;;8.17;100.00;162701.38;5020346;28;20052;-59
2022/08/07 04:57:21;;;;;;;22.00;13.75;;;;;;;8.25;100.00;162722.94;5009952;28;20397;-59
2022/08/07 05:00:02;;;;;;;20.33;14.73;;;;;;;8.32;100.00;162740.47;5009855;28;20125;-59
2022/08/07 05:02:33;;;;;;;14.43;12.60;;;;;;;8.37;100.00;162753.94;5011238;28;20034;-59
2022/08/07 05:05:08;;;;;;;18.27;13.05;;;;;;;8.44;100.00;162771.50;5024387;28;20072;-59
2022/08/07 05:07:49;;;;;;;14.80;12.82;;;;;;;8.48;100.00;162782.28;5020508;28;20029;-59
2022/08/07 05:10:25;;;;;;;18.83;15.05;;;;;;;8.54;100.00;162798.47;5016974;28;20069;-60
2022/08/07 05:13:02;;;;;;;17.73;14.93;;;;;;;8.57;100.00;162806.56;5018905;28;20032;-60
2022/08/07 05:15:34;;;;;;;15.80;14.13;;;;;;;8.74;100.00;162849.72;5014503;28;20128;-60
2022/08/07 05:18:08;;;;;;;28.60;14.30;;;;;;;8.84;100.00;161527.41;5016914;28;20064;-60
2022/08/07 05:20:38;;;;;;;17.08;15.15;;;;;;;8.87;100.00;158994.94;5019220;28;20068;-60
2022/08/07 05:23:10;;;;;;;17.80;14.98;;;;;;;8.99;100.00;156223.13;5016875;28;20022;-60
2022/08/07 05:25:36;;;;;;;22.27;15.80;;;;;;;9.13;100.00;154147.09;5008901;28;20563;-60
2022/08/07 05:28:03;;;;;;;18.90;14.68;;;;;;;9.26;100.00;151714.31;5010215;28;20082;-60
2022/08/07 05:30:29;;;;;;;18.83;15.50;;;;;;;9.35;100.00;148924.16;5018064;28;20056;-60
2022/08/07 05:32:55;;;;;;;24.85;17.98;;;;;;;9.49;100.00;146847.59;5010819;28;20029;-60
2022/08/07 05:35:22;;;;;;;23.58;18.65;;;;;;;9.62;100.00;144066.03;5021366;28;20041;-58
2022/08/07 05:37:47;;;;;;;25.67;17.00;;;;;;;9.76;100.00;141989.97;5029900;28;20028;-58
2022/08/07 05:40:16;;;;;;;27.83;20.20;;;;;;;9.92;100.00;139917.47;5026287;28;20046;-57
2022/08/07 05:42:42;;;;;;;24.60;19.65;;;;;;;10.03;100.00;137484.81;5010490;28;20040;-57
2022/08/07 05:45:09;;;;;;;29.33;21.38;;;;;;;10.18;100.00;135761.28;5012393;28;20065;-57
2022/08/07 05:47:35;;;;;;;28.27;20.15;;;;;;;10.36;100.00;134046.47;5014532;28;20167;-57
2022/08/07 05:50:02;;;;;;;26.17;20.70;;;;;;;10.54;100.00;132330.25;5016632;28;20065;-57
2022/08/07 05:52:27;;;;;;;24.95;21.23;;;;;;;10.68;100.00;131657.75;5023613;28;20125;-58
2022/08/07 05:54:53;;;;;;;27.33;22.05;;;;;;;10.82;100.00;131334.84;5009028;28;20503;-57
2022/08/07 05:57:19;;;;;;;31.10;21.92;;;;;;;10.92;100.00;132059.56;5011126;28;20022;-57
2022/08/07 05:59:45;;;;;;;36.03;23.20;;;;;;;11.11;100.00;134207.25;5018826;28;20456;-57
2022/08/07 06:02:14;;;;;;;24.60;21.23;;;;;;;11.25;100.00;137401.13;5021449;28;20053;-57
2022/08/07 06:04:47;;;;;;;28.35;21.50;;;;;;;11.35;100.00;142349.06;5008850;28;20037;-57
2022/08/07 06:07:13;;;;;;;24.00;18.30;;;;;;;11.43;100.00;150478.22;5024618;28;20043;-57
2022/08/07 06:09:40;;;;;;;24.70;18.15;;;;;;;11.52;100.00;163577.09;5027225;28;20478;-57
2022/08/07 06:12:06;;;;;;;23.90;19.25;;;;;;;11.70;100.00;163622.97;5027215;28;20131;-57
2022/08/07 06:14:32;;;;;;;23.67;19.45;;;;;;;11.81;100.00;163651.34;5026845;28;20045;-57
2022/08/07 06:16:57;;;;;;;20.27;17.35;;;;;;;11.99;100.00;163700.06;5029853;28;20099;-57
2022/08/07 06:19:25;;;;;;;22.08;18.60;;;;;;;12.16;100.00;163743.31;5025478;28;20065;-57
2022/08/07 06:21:50;;;;;;;28.30;17.90;;;;;;;12.38;100.00;163801.38;5015707;28;20057;-57
2022/08/07 06:24:16;;;;;;;24.08;18.13;;;;;;;12.52;100.00;163837.88;5015295;28;20697;-57
2022/08/07 06:26:41;;;;;;;21.33;16.45;;;;;;;12.63;100.00;163867.59;5027371;28;20412;-57
2022/08/07 06:29:07;;;;;;;21.90;18.45;;;;;;;12.80;100.00;163912.22;5032092;28;20030;-57
2022/08/07 06:31:32;;;;;;;19.40;16.60;;;;;;;12.91;100.00;163939.22;5033375;28;20098;-59
2022/08/07 06:33:58;;;;;;;25.88;16.27;;;;;;;13.01;100.00;163967.63;5014028;28;20460;-57
2022/08/07 06:36:25;;;;;;;22.08;18.23;;;;;;;13.17;100.00;164008.19;5011897;28;20092;-57
2022/08/07 06:38:51;;;;;;;16.42;13.35;;;;;;;13.39;100.00;164065.00;5013324;28;20473;-57
2022/08/07 06:41:25;;;;;;;17.88;13.75;;;;;;;13.59;100.00;164117.75;5010993;28;20129;-57
2022/08/07 06:43:53;;;;;;;14.55;13.05;;;;;;;13.77;100.00;164165.06;5018445;28;20031;-57
2022/08/07 06:46:18;;;;;;;17.17;12.93;;;;;;;13.89;100.00;164197.53;5029137;28;20103;-57
2022/08/07 06:48:44;;;;;;;14.70;11.88;;;;;;;14.07;100.00;164243.53;5032245;28;20025;-57
2022/08/07 06:51:15;;;;;;;12.35;11.07;;;;;;;14.10;100.00;164251.66;5029507;28;20054;-57
2022/08/07 06:53:41;;;;;;;13.60;11.55;;;;;;;14.31;100.00;164307.09;5032770;28;20450;-58
2022/08/07 06:56:09;;;;;;;31.80;13.07;;;;;;;14.56;100.00;164372.06;5030717;28;20417;-57
2022/08/07 06:58:35;;;;;;;10.82;9.40;;;;;;;14.93;100.00;164468.19;5032983;28;20022;-57
2022/08/07 07:01:04;;;;;;;11.98;10.70;;;;;;;15.73;100.00;164677.97;5028890;28;20409;-57
2022/08/07 07:03:30;;;;;;;23.80;11.73;;;;;;;16.79;100.00;164958.38;5031550;28;20064;-57
2022/08/07 07:05:56;;;;;;;14.20;9.38;;;;;;;17.65;100.00;165182.06;5018134;28;20137;-57
2022/08/07 07:08:28;;;;;;;14.45;9.02;;;;;;;18.28;100.00;165348.81;5023912;28;20056;-58
2022/08/07 07:10:54;;;;;;;12.60;9.25;;;;;;;18.76;100.00;165473.59;5017548;28;20041;-57
2022/08/07 07:13:28;;;;;;;8.55;7.65;;;;;;;19.11;100.00;165565.84;5014182;28;20030;-57
2022/08/07 07:15:59;;;;;;;12.90;7.60;;;;;;;19.41;100.00;165644.53;5015983;28;20068;-57
2022/08/07 07:18:31;;;;;;;11.63;8.60;;;;;;;19.84;100.00;165758.63;5015233;28;20057;-57
2022/08/07 07:21:03;;;;;;;9.40;8.18;;;;;;;20.08;100.00;165821.00;5013656;28;20041;-57
2022/08/07 07:23:29;;;;;;;12.57;9.60;;;;;;;20.08;100.00;165821.00;5013615;28;20449;-57
2022/08/07 07:25:59;;;;;;;8.98;8.07;;;;;;;19.80;100.00;165747.69;5014705;28;20038;-57
2022/08/07 07:28:28;;;;;;;18.30;9.52;;;;;;;-146.58;100.00;69501.63;5023538;28;20608;-58
2022/08/07 07:31:01;;;;;;;7.63;6.70;;;;;;;-146.58;100.00;69501.63;5025796;28;20037;-57
2022/08/07 07:33:29;;;;;;;7.57;5.80;;;;;;;-146.58;100.00;69501.63;5017949;28;20029;-58
2022/08/07 07:35:56;;;;;;;10.93;7.20;;;;;;;-146.58;100.00;69501.63;5028381;28;20037;-58
2022/08/07 07:38:24;;;;;;;10.02;6.90;;;;;;;-146.58;100.00;69501.63;5024757;28;20033;-58
2022/08/07 07:40:53;;;;;;;14.73;6.53;;;;;;;-146.58;100.00;69501.63;5025739;28;20038;-57
2022/08/07 07:43:21;;;;;;;6.43;5.53;;;;;;;-146.58;100.00;69501.63;5012195;28;20030;-58
2022/08/07 07:45:49;;;;;;;7.50;5.57;;;;;;;-146.58;100.00;69501.63;5011106;28;20042;-58
2022/08/07 07:48:20;;;;;;;8.75;4.78;;;;;;;-146.58;100.00;69501.63;5021904;28;20108;-58
2022/08/07 07:50:47;;;;;;;20.45;7.60;;;;;;;-146.58;100.00;69501.63;5012389;28;20052;-57
2022/08/07 07:53:17;;;;;;;7.93;5.17;;;;;;;-146.58;100.00;69501.63;5027033;28;20030;-57
2022/08/07 07:55:42;;;;;;;6.70;5.80;;;;;;;18.67;100.00;165451.88;5016419;28;20050;-59
2022/08/07 07:58:09;;;;;;;5.88;4.78;;;;;;;18.71;100.00;165462.75;5019014;28;20029;-57
2022/08/07 08:00:35;;;;;;;6.93;4.32;;;;;;;18.74;100.00;165469.53;5028855;28;20809;-57
2022/08/07 08:03:22;;;;;;;5.05;4.15;;;;;;;18.67;100.00;165451.88;5012078;28;20037;-57
2022/08/07 08:05:48;;;;;;;8.77;4.30;;;;;;;18.71;100.00;165461.38;5010413;28;20041;-58
2022/08/07 08:08:14;;;;;;;5.55;3.78;;;;;;;18.79;100.00;165481.75;5011649;28;20373;-57
2022/08/07 08:10:40;;;;;;;5.10;4.28;;;;;;;18.82;100.00;165489.84;5010591;28;20088;-57
2022/08/07 08:13:09;;;;;;;6.40;3.58;;;;;;;19.13;100.00;165571.31;5029837;28;20679;-57
2022/08/07 08:15:38;;;;;;;4.82;3.65;;;;;;;19.44;100.00;165652.72;5022736;28;20096;-58
2022/08/07 08:18:08;;;;;;;4.40;3.83;;;;;;;-146.58;100.00;69501.63;5012089;28;20029;-57
2022/08/07 08:20:34;;;;;;;4.47;3.40;;;;;;;-146.58;100.00;69501.63;5010367;28;20038;-58
2022/08/07 08:28:35;;;;;;;4.18;3.45;;;;;;;20.73;100.00;165992.13;5023670;28;20051;-58
2022/08/07 08:31:03;;;;;;;6.32;3.70;;;;;;;20.74;100.00;165994.78;5029742;28;20037;-58
2022/08/07 08:33:35;;;;;;;;;;;;;;;20.64;100.00;165967.63;5031475;28;20025;-58
2022/08/07 08:36:02;;;;;;;5.45;3.78;;;;;;;20.44;100.00;165916.00;5029342;28;19917;-58
2022/08/07 08:38:32;;;;;;;7.45;3.03;;;;;;;20.66;100.00;165973.06;5030917;28;20017;-58
2022/08/07 08:41:28;;;;;;;5.20;3.40;;;;;;;20.74;100.00;165994.78;5010516;28;20474;-58
2022/08/07 08:44:02;;;;;;;2.47;2.20;;;;;;;20.67;100.00;165975.75;5004691;28;20087;-58
2022/08/07 08:46:47;;;;;;;4.95;2.28;;;;;;;20.75;100.00;165997.53;5009450;28;20121;-58
2022/08/07 08:49:27;;;;;;;3.80;2.35;;;;;;;20.71;100.00;165987.97;5009944;28;20029;-58
2022/08/07 08:52:04;;;;;;;4.68;1.88;;;;;;;20.85;100.00;166023.34;5010987;28;20022;-58
2022/08/07 08:54:45;;;;;;;3.28;1.65;;;;;;;21.01;100.00;166065.44;5018962;28;20436;-58
2022/08/07 08:57:20;;;;;;;3.60;2.38;;;;;;;21.11;100.00;166091.22;5029174;28;20021;-58
2022/08/07 08:59:52;;;;;;;4.00;1.95;;;;;;;21.28;100.00;166136.03;5009812;28;20030;-58
2022/08/07 09:02:30;;;;;;;4.53;1.90;;;;;;;21.49;100.00;166193.06;5011052;28;20018;-58
2022/08/07 09:05:20;;;;;;;4.28;2.45;;;;;;;21.45;100.00;166182.22;5009697;28;20489;-58
2022/08/07 09:08:19;;;;;;;5.85;3.00;;;;;;;21.80;100.00;166273.28;5010860;28;20021;-58
2022/08/07 09:11:22;;;;;;;3.17;1.85;;;;;;;21.69;100.00;166244.75;5009704;28;20049;-58
2022/08/07 09:14:12;;;;;;;2.95;2.13;;;;;;;21.78;100.00;166267.84;4986130;28;20042;-58
2022/08/07 09:16:46;;;;;;;2.75;1.67;;;;;;;22.08;100.00;166347.97;5009492;28;20449;-58
2022/08/07 09:19:33;;;;;;;3.25;2.10;;;;;;;22.17;100.00;166372.44;5015991;28;20684;-58
2022/08/07 09:22:32;;;;;;;3.93;1.90;;;;;;;22.58;100.00;166478.47;5030775;28;20033;-58
2022/08/07 09:25:09;;;;;;;3.00;2.25;;;;;;;22.91;100.00;166566.81;5029302;28;20045;-58
2022/08/07 09:28:04;;;;;;;4.53;2.50;;;;;;;23.35;100.00;166682.38;5027336;28;20053;-58
2022/08/07 09:30:44;;;;;;;3.60;1.63;;;;;;;23.40;100.00;166696.00;5028830;28;20033;-58
2022/08/07 09:33:57;;;;;;;2.65;1.98;;;;;;;23.50;100.00;166720.44;5030417;28;20025;-58
2022/08/07 09:36:34;;;;;;;2.50;2.13;;;;;;;23.56;100.00;166738.16;4986876;28;20049;-58
2022/08/07 09:39:21;;;;;;;6.70;2.92;;;;;;;23.39;100.00;166691.91;4989026;28;20093;-58
2022/08/07 09:42:09;;;;;;;7.50;2.03;;;;;;;23.59;100.00;166744.94;5018279;28;20052;-58
2022/08/07 09:45:06;;;;;;;5.03;2.15;;;;;;;23.57;100.00;166740.88;5007700;28;20506;-58
2022/08/07 09:47:59;;;;;;;6.97;2.05;;;;;;;23.49;100.00;166719.09;5009310;28;20421;-58
2022/08/07 09:50:49;;;;;;;2.83;2.15;;;;;;;23.70;100.00;166774.88;5007836;28;20062;-58
2022/08/07 09:53:16;;;;;;;4.10;2.00;;;;;;;23.71;100.00;166777.59;5009458;28;20061;-58
2022/08/07 09:56:08;;;;;;;2.95;1.90;;;;;;;24.04;100.00;166864.66;5028104;28;20041;-58
2022/08/07 09:58:51;;;;;;;2.63;2.03;;;;;;;23.75;100.00;166788.44;5030312;28;20494;-58
2022/08/07 10:01:46;;;;;;;4.28;2.30;;;;;;;24.06;97.93;166868.72;5032622;28;20037;-58
2022/08/07 10:04:32;;;;;;;3.17;1.95;;;;;;;23.98;97.31;166848.34;5032899;28;20036;-58
2022/08/07 10:07:33;;;;;;;5.55;2.20;;;;;;;23.68;98.59;166769.41;5033962;28;20036;-58
2022/08/07 10:10:12;;;;;;;2.53;2.03;;;;;;;23.60;97.77;166749.00;5032848;28;20052;-58
2022/08/07 10:13:15;;;;;;;4.38;2.45;;;;;;;23.88;94.80;166821.06;5033326;28;20922;-58
2022/08/07 10:15:59;;;;;;;1.95;1.70;;;;;;;24.11;95.46;166882.34;5032653;28;20627;-58
2022/08/07 10:18:45;;;;;;;2.72;1.70;;;;;;;24.18;99.17;166901.38;5033746;28;20435;-58
2022/08/07 10:21:20;;;;;;;2.67;2.25;;;;;;;24.35;96.83;166946.25;5032135;28;20052;-58
2022/08/07 10:24:03;;;;;;;2.75;1.98;;;;;;;24.21;94.72;166908.19;5029551;28;20032;-58
2022/08/07 10:26:35;;;;;;;5.30;2.35;;;;;;;23.95;91.15;166840.16;5012330;28;20057;-58
2022/08/07 10:29:35;;;;;;;3.00;1.70;;;;;;;24.05;88.19;166867.38;5013825;28;20044;-58
2022/08/07 10:32:54;;;;;;;4.28;2.22;;;;;;;24.40;88.60;166959.84;5012748;28;20092;-58
2022/08/07 10:35:45;;;;;;;3.30;1.73;;;;;;;24.54;89.54;166995.19;4970300;28;20042;-58
2022/08/07 10:38:40;;;;;;;3.47;2.05;;;;;;;24.73;90.47;167044.25;5013832;28;20029;-58
2022/08/07 10:41:22;;;;;;;6.38;2.00;;;;;;;24.89;91.63;167087.78;5012209;28;20505;-58
2022/08/07 10:44:09;;;;;;;2.28;1.90;;;;;;;25.28;86.01;167191.16;5013402;28;20547;-58
2022/08/07 10:46:40;;;;;;;;;;;;;;;25.26;87.83;167184.34;5012781;28;20656;-58
2022/08/07 10:49:13;;;;;;;3.80;2.00;;;;;;;25.47;83.32;167240.22;5013140;28;19917;-58
2022/08/07 10:51:50;;;;;;;4.00;2.33;;;;;;;25.22;84.75;167173.50;5013884;28;20022;-58
2022/08/07 10:54:36;;;;;;;3.78;2.28;;;;;;;25.24;87.98;167180.28;5031389;28;20037;-58
2022/08/07 10:57:10;;;;;;;3.20;1.88;;;;;;;24.75;83.17;167049.69;5033113;28;20068;-58
2022/08/07 11:00:00;;;;;;;2.33;1.60;;;;;;;24.74;86.16;167046.97;5031768;28;20038;-58
2022/08/07 11:02:43;;;;;;;3.92;1.88;;;;;;;24.17;82.66;166897.28;5032862;28;20063;-58
2022/08/07 11:05:15;;;;;;;2.05;1.85;;;;;;;23.98;88.42;166848.34;5031511;28;20030;-58
2022/08/07 11:08:12;;;;;;;2.85;2.10;;;;;;;23.98;83.63;166847.00;5033169;28;20052;-58
2022/08/07 11:11:05;;;;;;;2.75;1.75;;;;;;;24.00;85.30;166853.78;5031043;28;20529;-58
2022/08/07 11:13:50;;;;;;;2.40;2.00;;;;;;;24.35;84.69;166946.25;5032313;28;20029;-58
2022/08/07 11:16:33;;;;;;;4.55;1.80;;;;;;;24.35;84.69;166946.25;5024715;28;20409;-58
2022/08/07 11:19:12;;;;;;;6.55;1.83;;;;;;;24.56;75.40;167000.66;5012881;28;20030;-58
2022/08/07 11:22:23;;;;;;;2.38;1.33;;;;;;;24.18;75.28;166900.00;5011704;28;20037;-58
2022/08/07 11:24:57;;;;;;;4.78;2.08;;;;;;;24.38;77.76;166953.06;5007666;28;20037;-58
2022/08/07 11:27:37;;;;;;;3.28;1.85;;;;;;;24.48;77.30;166980.28;5032024;28;20128;-59
2022/08/07 11:30:05;;;;;;;2.55;1.80;;;;;;;24.38;77.77;166954.44;5031478;28;20071;-58
2022/08/07 11:32:43;;;;;;;1.85;1.52;;;;;;;24.20;78.07;166906.78;5032248;28;20385;-58
2022/08/07 11:35:14;;;;;;;1.95;1.27;;;;;;;24.47;79.10;166977.53;5030531;28;20079;-58
2022/08/07 11:38:02;;;;;;;3.03;1.67;;;;;;;24.60;82.55;167011.56;5031853;28;20104;-58
2022/08/07 11:40:55;;;;;;;2.53;1.70;;;;;;;24.62;81.67;167015.63;5030633;28;20045;-58